sensor_id;sensor_type;location;lat;lon;timestamp;P1;durP1;ratioP1;P2;durP2;ratioP2
77822;SDS011;67013;49.730;17.292;2023-05-15T00:00:19;3.00;;;1.50;;
77822;SDS011;67013;49.730;17.292;2023-05-15T00:02:48;2.70;;;1.30;;
77822;SDS011;67013;49.730;17.292;2023-05-15T00:05:18;2.40;;;1.30;;
77822;SDS011;67013;49.730;17.292;2023-05-15T00:07:48;2.40;;;1.20;;
77822;SDS011;67013;49.730;17.292;2023-05-15T00:10:17;2.40;;;1.10;;
77822;SDS011;67013;49.730;17.292;2023-05-15T00:12:47;3.70;;;1.50;;
77822;SDS011;67013;49.730;17.292;2023-05-15T00:15:17;2.50;;;1.20;;
77822;SDS011;67013;49.730;17.292;2023-05-15T00:17:46;2.50;;;1.30;;
77822;SDS011;67013;49.730;17.292;2023-05-15T00:20:15;3.00;;;1.50;;
77822;SDS011;67013;49.730;17.292;2023-05-15T00:22:45;2.40;;;1.20;;
77822;SDS011;67013;49.730;17.292;2023-05-15T00:25:15;2.20;;;1.10;;
77822;SDS011;67013;49.730;17.292;2023-05-15T00:27:45;2.20;;;1.20;;
77822;SDS011;67013;49.730;17.292;2023-05-15T00:30:14;3.20;;;1.20;;
77822;SDS011;67013;49.730;17.292;2023-05-15T00:32:44;2.10;;;1.10;;
77822;SDS011;67013;49.730;17.292;2023-05-15T00:35:14;2.00;;;0.90;;
77822;SDS011;67013;49.730;17.292;2023-05-15T00:37:43;1.60;;;0.90;;
77822;SDS011;67013;49.730;17.292;2023-05-15T00:40:14;2.20;;;1.00;;
77822;SDS011;67013;49.730;17.292;2023-05-15T00:42:48;2.20;;;1.00;;
77822;SDS011;67013;49.730;17.292;2023-05-15T00:45:19;2.00;;;1.10;;
77822;SDS011;67013;49.730;17.292;2023-05-15T00:47:51;1.90;;;0.90;;
77822;SDS011;67013;49.730;17.292;2023-05-15T00:50:21;2.30;;;1.10;;
77822;SDS011;67013;49.730;17.292;2023-05-15T00:52:52;2.50;;;1.10;;
77822;SDS011;67013;49.730;17.292;2023-05-15T00:55:22;2.10;;;1.10;;
77822;SDS011;67013;49.730;17.292;2023-05-15T00:57:52;1.90;;;1.00;;
77822;SDS011;67013;49.730;17.292;2023-05-15T01:00:23;2.60;;;1.20;;
77822;SDS011;67013;49.730;17.292;2023-05-15T01:02:54;1.90;;;1.00;;
77822;SDS011;67013;49.730;17.292;2023-05-15T01:05:23;2.20;;;1.10;;
77822;SDS011;67013;49.730;17.292;2023-05-15T01:07:55;2.40;;;1.10;;
77822;SDS011;67013;49.730;17.292;2023-05-15T01:10:28;2.70;;;1.20;;
77822;SDS011;67013;49.730;17.292;2023-05-15T01:12:58;2.30;;;1.00;;
77822;SDS011;67013;49.730;17.292;2023-05-15T01:15:29;2.00;;;1.10;;
77822;SDS011;67013;49.730;17.292;2023-05-15T01:17:59;2.50;;;1.30;;
77822;SDS011;67013;49.730;17.292;2023-05-15T01:20:28;2.60;;;1.40;;
77822;SDS011;67013;49.730;17.292;2023-05-15T01:23:16;2.40;;;1.10;;
77822;SDS011;67013;49.730;17.292;2023-05-15T01:29:19;1.80;;;1.00;;
77822;SDS011;67013;49.730;17.292;2023-05-15T01:31:55;2.10;;;1.10;;
77822;SDS011;67013;49.730;17.292;2023-05-15T01:34:30;4.20;;;1.10;;
77822;SDS011;67013;49.730;17.292;2023-05-15T01:37:05;2.50;;;1.10;;
77822;SDS011;67013;49.730;17.292;2023-05-15T01:39:38;2.10;;;1.10;;
77822;SDS011;67013;49.730;17.292;2023-05-15T01:42:09;2.70;;;1.30;;
77822;SDS011;67013;49.730;17.292;2023-05-15T01:44:44;2.50;;;1.30;;
77822;SDS011;67013;49.730;17.292;2023-05-15T01:47:18;3.10;;;1.30;;
77822;SDS011;67013;49.730;17.292;2023-05-15T01:49:58;2.20;;;1.00;;
77822;SDS011;67013;49.730;17.292;2023-05-15T01:52:29;2.60;;;1.20;;
77822;SDS011;67013;49.730;17.292;2023-05-15T01:55:02;2.10;;;1.10;;
77822;SDS011;67013;49.730;17.292;2023-05-15T01:57:35;2.70;;;1.40;;
77822;SDS011;67013;49.730;17.292;2023-05-15T02:00:10;2.60;;;1.40;;
77822;SDS011;67013;49.730;17.292;2023-05-15T02:02:40;2.20;;;1.00;;
77822;SDS011;67013;49.730;17.292;2023-05-15T02:05:11;2.60;;;1.20;;
77822;SDS011;67013;49.730;17.292;2023-05-15T02:07:41;2.40;;;1.00;;
77822;SDS011;67013;49.730;17.292;2023-05-15T02:10:12;2.70;;;1.20;;
77822;SDS011;67013;49.730;17.292;2023-05-15T02:12:43;2.10;;;1.00;;
77822;SDS011;67013;49.730;17.292;2023-05-15T02:15:13;2.60;;;1.20;;
77822;SDS011;67013;49.730;17.292;2023-05-15T02:17:45;3.40;;;1.30;;
77822;SDS011;67013;49.730;17.292;2023-05-15T02:20:15;2.10;;;1.00;;
77822;SDS011;67013;49.730;17.292;2023-05-15T02:22:44;2.40;;;1.10;;
77822;SDS011;67013;49.730;17.292;2023-05-15T02:25:14;2.50;;;1.10;;
77822;SDS011;67013;49.730;17.292;2023-05-15T02:27:45;2.50;;;1.10;;
77822;SDS011;67013;49.730;17.292;2023-05-15T02:30:22;2.20;;;1.00;;
77822;SDS011;67013;49.730;17.292;2023-05-15T02:33:03;2.20;;;1.00;;
77822;SDS011;67013;49.730;17.292;2023-05-15T02:35:41;2.20;;;1.20;;
77822;SDS011;67013;49.730;17.292;2023-05-15T02:38:16;2.30;;;1.30;;
77822;SDS011;67013;49.730;17.292;2023-05-15T02:40:49;2.10;;;1.10;;
77822;SDS011;67013;49.730;17.292;2023-05-15T02:43:21;2.40;;;1.20;;
77822;SDS011;67013;49.730;17.292;2023-05-15T02:45:51;2.60;;;1.20;;
77822;SDS011;67013;49.730;17.292;2023-05-15T02:48:23;2.30;;;1.20;;
77822;SDS011;67013;49.730;17.292;2023-05-15T02:50:53;2.90;;;1.30;;
77822;SDS011;67013;49.730;17.292;2023-05-15T02:53:23;2.10;;;1.20;;
77822;SDS011;67013;49.730;17.292;2023-05-15T02:55:53;1.90;;;1.10;;
77822;SDS011;67013;49.730;17.292;2023-05-15T02:58:22;2.00;;;1.00;;
77822;SDS011;67013;49.730;17.292;2023-05-15T03:00:52;2.00;;;0.90;;
77822;SDS011;67013;49.730;17.292;2023-05-15T03:03:22;2.20;;;1.00;;
77822;SDS011;67013;49.730;17.292;2023-05-15T03:05:51;1.80;;;1.00;;
77822;SDS011;67013;49.730;17.292;2023-05-15T03:08:21;1.90;;;1.00;;
77822;SDS011;67013;49.730;17.292;2023-05-15T03:10:50;2.00;;;1.10;;
77822;SDS011;67013;49.730;17.292;2023-05-15T03:13:20;2.00;;;1.10;;
77822;SDS011;67013;49.730;17.292;2023-05-15T03:15:49;2.80;;;1.10;;
77822;SDS011;67013;49.730;17.292;2023-05-15T03:18:20;2.00;;;1.10;;
77822;SDS011;67013;49.730;17.292;2023-05-15T03:20:50;2.20;;;1.20;;
77822;SDS011;67013;49.730;17.292;2023-05-15T03:23:20;2.10;;;1.00;;
77822;SDS011;67013;49.730;17.292;2023-05-15T03:25:49;2.10;;;1.10;;
77822;SDS011;67013;49.730;17.292;2023-05-15T03:28:19;2.60;;;1.30;;
77822;SDS011;67013;49.730;17.292;2023-05-15T03:30:48;2.70;;;1.30;;
77822;SDS011;67013;49.730;17.292;2023-05-15T03:33:18;2.50;;;1.20;;
77822;SDS011;67013;49.730;17.292;2023-05-15T03:35:47;2.30;;;1.10;;
77822;SDS011;67013;49.730;17.292;2023-05-15T03:38:18;2.60;;;1.30;;
77822;SDS011;67013;49.730;17.292;2023-05-15T03:40:47;2.20;;;1.10;;
77822;SDS011;67013;49.730;17.292;2023-05-15T03:43:17;2.60;;;1.20;;
77822;SDS011;67013;49.730;17.292;2023-05-15T03:45:46;2.60;;;1.40;;
77822;SDS011;67013;49.730;17.292;2023-05-15T03:48:16;2.30;;;1.20;;
77822;SDS011;67013;49.730;17.292;2023-05-15T03:50:45;2.80;;;1.50;;
77822;SDS011;67013;49.730;17.292;2023-05-15T03:53:15;2.90;;;1.50;;
77822;SDS011;67013;49.730;17.292;2023-05-15T03:55:44;2.70;;;1.50;;
77822;SDS011;67013;49.730;17.292;2023-05-15T03:58:14;3.10;;;1.40;;
77822;SDS011;67013;49.730;17.292;2023-05-15T04:00:43;2.50;;;1.30;;
77822;SDS011;67013;49.730;17.292;2023-05-15T04:03:13;2.80;;;1.40;;
77822;SDS011;67013;49.730;17.292;2023-05-15T04:05:42;2.70;;;1.50;;
77822;SDS011;67013;49.730;17.292;2023-05-15T04:08:15;2.50;;;1.30;;
77822;SDS011;67013;49.730;17.292;2023-05-15T04:10:44;2.20;;;1.20;;
77822;SDS011;67013;49.730;17.292;2023-05-15T04:13:14;2.60;;;1.30;;
77822;SDS011;67013;49.730;17.292;2023-05-15T04:15:43;2.40;;;1.20;;
77822;SDS011;67013;49.730;17.292;2023-05-15T04:18:14;2.50;;;1.30;;
77822;SDS011;67013;49.730;17.292;2023-05-15T04:20:43;2.30;;;1.30;;
77822;SDS011;67013;49.730;17.292;2023-05-15T04:23:13;2.80;;;1.40;;
77822;SDS011;67013;49.730;17.292;2023-05-15T04:25:42;2.50;;;1.40;;
77822;SDS011;67013;49.730;17.292;2023-05-15T04:28:12;2.50;;;1.30;;
77822;SDS011;67013;49.730;17.292;2023-05-15T04:30:42;2.50;;;1.30;;
77822;SDS011;67013;49.730;17.292;2023-05-15T04:33:12;2.30;;;1.20;;
77822;SDS011;67013;49.730;17.292;2023-05-15T04:35:41;2.50;;;1.20;;
77822;SDS011;67013;49.730;17.292;2023-05-15T04:38:11;2.30;;;1.10;;
77822;SDS011;67013;49.730;17.292;2023-05-15T04:40:41;2.30;;;1.10;;
77822;SDS011;67013;49.730;17.292;2023-05-15T04:43:11;2.20;;;1.20;;
77822;SDS011;67013;49.730;17.292;2023-05-15T04:45:40;2.40;;;1.40;;
77822;SDS011;67013;49.730;17.292;2023-05-15T04:48:10;3.00;;;1.40;;
77822;SDS011;67013;49.730;17.292;2023-05-15T04:50:39;2.40;;;1.30;;
77822;SDS011;67013;49.730;17.292;2023-05-15T04:53:09;2.60;;;1.40;;
77822;SDS011;67013;49.730;17.292;2023-05-15T04:55:38;2.50;;;1.20;;
77822;SDS011;67013;49.730;17.292;2023-05-15T04:58:08;2.30;;;1.20;;
77822;SDS011;67013;49.730;17.292;2023-05-15T05:00:37;2.40;;;1.20;;
77822;SDS011;67013;49.730;17.292;2023-05-15T05:03:07;2.40;;;1.30;;
77822;SDS011;67013;49.730;17.292;2023-05-15T05:05:36;2.70;;;1.30;;
77822;SDS011;67013;49.730;17.292;2023-05-15T05:08:06;2.70;;;1.20;;
77822;SDS011;67013;49.730;17.292;2023-05-15T05:10:35;2.10;;;1.20;;
77822;SDS011;67013;49.730;17.292;2023-05-15T05:13:05;2.50;;;1.30;;
77822;SDS011;67013;49.730;17.292;2023-05-15T05:15:34;2.50;;;1.30;;
77822;SDS011;67013;49.730;17.292;2023-05-15T05:18:04;2.10;;;1.10;;
77822;SDS011;67013;49.730;17.292;2023-05-15T05:20:34;2.20;;;1.10;;
77822;SDS011;67013;49.730;17.292;2023-05-15T05:23:03;2.20;;;1.20;;
77822;SDS011;67013;49.730;17.292;2023-05-15T05:25:33;2.50;;;1.20;;
77822;SDS011;67013;49.730;17.292;2023-05-15T05:28:02;3.70;;;2.80;;
77822;SDS011;67013;49.730;17.292;2023-05-15T05:30:32;2.40;;;1.30;;
77822;SDS011;67013;49.730;17.292;2023-05-15T05:33:01;2.50;;;1.20;;
77822;SDS011;67013;49.730;17.292;2023-05-15T05:35:31;2.20;;;1.20;;
77822;SDS011;67013;49.730;17.292;2023-05-15T05:38:01;2.70;;;1.30;;
77822;SDS011;67013;49.730;17.292;2023-05-15T05:40:30;2.40;;;1.20;;
77822;SDS011;67013;49.730;17.292;2023-05-15T05:43:00;2.20;;;1.20;;
77822;SDS011;67013;49.730;17.292;2023-05-15T05:45:30;2.30;;;1.20;;
77822;SDS011;67013;49.730;17.292;2023-05-15T05:47:59;2.30;;;1.30;;
77822;SDS011;67013;49.730;17.292;2023-05-15T05:50:29;1.60;;;0.90;;
77822;SDS011;67013;49.730;17.292;2023-05-15T05:52:58;2.30;;;1.10;;
77822;SDS011;67013;49.730;17.292;2023-05-15T05:55:28;2.20;;;1.20;;
77822;SDS011;67013;49.730;17.292;2023-05-15T05:57:57;2.30;;;1.10;;
77822;SDS011;67013;49.730;17.292;2023-05-15T06:00:27;2.50;;;1.20;;
77822;SDS011;67013;49.730;17.292;2023-05-15T06:02:57;2.90;;;1.60;;
77822;SDS011;67013;49.730;17.292;2023-05-15T06:05:27;2.50;;;1.30;;
77822;SDS011;67013;49.730;17.292;2023-05-15T06:07:56;2.70;;;1.40;;
77822;SDS011;67013;49.730;17.292;2023-05-15T06:10:27;1.80;;;0.90;;
77822;SDS011;67013;49.730;17.292;2023-05-15T06:12:57;2.00;;;1.00;;
77822;SDS011;67013;49.730;17.292;2023-05-15T06:15:26;2.50;;;1.00;;
77822;SDS011;67013;49.730;17.292;2023-05-15T06:17:56;2.50;;;1.20;;
77822;SDS011;67013;49.730;17.292;2023-05-15T06:20:25;2.20;;;1.20;;
77822;SDS011;67013;49.730;17.292;2023-05-15T06:22:55;1.90;;;1.00;;
77822;SDS011;67013;49.730;17.292;2023-05-15T06:25:25;2.60;;;1.00;;
77822;SDS011;67013;49.730;17.292;2023-05-15T06:27:54;2.40;;;1.30;;
77822;SDS011;67013;49.730;17.292;2023-05-15T06:30:23;2.10;;;1.10;;
77822;SDS011;67013;49.730;17.292;2023-05-15T06:32:53;1.90;;;0.90;;
77822;SDS011;67013;49.730;17.292;2023-05-15T06:35:22;2.30;;;1.10;;
77822;SDS011;67013;49.730;17.292;2023-05-15T06:37:52;1.70;;;0.90;;
77822;SDS011;67013;49.730;17.292;2023-05-15T06:40:21;1.90;;;1.00;;
77822;SDS011;67013;49.730;17.292;2023-05-15T06:42:51;2.40;;;1.30;;
77822;SDS011;67013;49.730;17.292;2023-05-15T06:45:20;2.00;;;0.90;;
77822;SDS011;67013;49.730;17.292;2023-05-15T06:47:50;2.20;;;1.00;;
77822;SDS011;67013;49.730;17.292;2023-05-15T06:50:19;2.20;;;1.00;;
77822;SDS011;67013;49.730;17.292;2023-05-15T06:52:49;2.40;;;0.90;;
77822;SDS011;67013;49.730;17.292;2023-05-15T06:55:20;2.00;;;1.00;;
77822;SDS011;67013;49.730;17.292;2023-05-15T06:57:49;1.50;;;0.80;;
77822;SDS011;67013;49.730;17.292;2023-05-15T07:00:19;1.90;;;0.90;;
77822;SDS011;67013;49.730;17.292;2023-05-15T07:02:49;1.70;;;0.90;;
77822;SDS011;67013;49.730;17.292;2023-05-15T07:05:19;1.30;;;0.80;;
77822;SDS011;67013;49.730;17.292;2023-05-15T07:07:48;1.60;;;1.00;;
77822;SDS011;67013;49.730;17.292;2023-05-15T07:10:18;1.50;;;0.70;;
77822;SDS011;67013;49.730;17.292;2023-05-15T07:12:47;2.00;;;1.00;;
77822;SDS011;67013;49.730;17.292;2023-05-15T07:15:17;2.00;;;1.00;;
77822;SDS011;67013;49.730;17.292;2023-05-15T07:17:46;1.30;;;0.80;;
77822;SDS011;67013;49.730;17.292;2023-05-15T07:20:16;1.70;;;0.90;;
77822;SDS011;67013;49.730;17.292;2023-05-15T07:22:45;1.40;;;0.80;;
77822;SDS011;67013;49.730;17.292;2023-05-15T07:25:15;2.20;;;1.00;;
77822;SDS011;67013;49.730;17.292;2023-05-15T07:27:44;3.20;;;1.60;;
77822;SDS011;67013;49.730;17.292;2023-05-15T07:30:14;2.50;;;1.10;;
77822;SDS011;67013;49.730;17.292;2023-05-15T07:32:44;1.90;;;0.90;;
77822;SDS011;67013;49.730;17.292;2023-05-15T07:35:13;2.00;;;1.00;;
77822;SDS011;67013;49.730;17.292;2023-05-15T07:37:43;1.90;;;1.00;;
77822;SDS011;67013;49.730;17.292;2023-05-15T07:40:13;1.60;;;0.90;;
77822;SDS011;67013;49.730;17.292;2023-05-15T07:42:42;2.10;;;1.00;;
77822;SDS011;67013;49.730;17.292;2023-05-15T07:45:13;1.90;;;1.10;;
77822;SDS011;67013;49.730;17.292;2023-05-15T07:47:43;2.60;;;1.50;;
77822;SDS011;67013;49.730;17.292;2023-05-15T07:50:13;2.50;;;1.30;;
77822;SDS011;67013;49.730;17.292;2023-05-15T07:52:43;2.50;;;1.20;;
77822;SDS011;67013;49.730;17.292;2023-05-15T07:55:13;1.80;;;1.00;;
77822;SDS011;67013;49.730;17.292;2023-05-15T07:57:43;2.30;;;1.00;;
77822;SDS011;67013;49.730;17.292;2023-05-15T08:00:14;2.30;;;1.00;;
77822;SDS011;67013;49.730;17.292;2023-05-15T08:02:45;1.90;;;1.10;;
77822;SDS011;67013;49.730;17.292;2023-05-15T08:05:15;1.70;;;0.90;;
77822;SDS011;67013;49.730;17.292;2023-05-15T08:07:44;1.70;;;0.90;;
77822;SDS011;67013;49.730;17.292;2023-05-15T08:10:14;2.30;;;0.80;;
77822;SDS011;67013;49.730;17.292;2023-05-15T08:12:43;2.00;;;1.00;;
77822;SDS011;67013;49.730;17.292;2023-05-15T08:15:14;2.20;;;1.10;;
77822;SDS011;67013;49.730;17.292;2023-05-15T08:17:43;2.40;;;1.10;;
77822;SDS011;67013;49.730;17.292;2023-05-15T08:20:13;2.20;;;1.10;;
77822;SDS011;67013;49.730;17.292;2023-05-15T08:22:43;2.40;;;1.20;;
77822;SDS011;67013;49.730;17.292;2023-05-15T08:25:13;2.80;;;1.60;;
77822;SDS011;67013;49.730;17.292;2023-05-15T08:27:42;3.10;;;1.50;;
77822;SDS011;67013;49.730;17.292;2023-05-15T08:30:12;2.60;;;1.30;;
77822;SDS011;67013;49.730;17.292;2023-05-15T08:32:43;2.70;;;1.10;;
77822;SDS011;67013;49.730;17.292;2023-05-15T08:35:14;1.90;;;0.90;;
77822;SDS011;67013;49.730;17.292;2023-05-15T08:37:43;1.90;;;1.00;;
77822;SDS011;67013;49.730;17.292;2023-05-15T08:40:13;2.40;;;1.20;;
77822;SDS011;67013;49.730;17.292;2023-05-15T08:42:44;2.10;;;1.00;;
77822;SDS011;67013;49.730;17.292;2023-05-15T08:45:15;2.50;;;1.20;;
77822;SDS011;67013;49.730;17.292;2023-05-15T08:47:45;2.40;;;1.30;;
77822;SDS011;67013;49.730;17.292;2023-05-15T08:50:15;2.50;;;1.20;;
77822;SDS011;67013;49.730;17.292;2023-05-15T08:52:46;1.90;;;1.00;;
77822;SDS011;67013;49.730;17.292;2023-05-15T08:55:17;2.60;;;1.20;;
77822;SDS011;67013;49.730;17.292;2023-05-15T08:57:47;2.10;;;1.10;;
77822;SDS011;67013;49.730;17.292;2023-05-15T09:00:20;2.30;;;1.10;;
77822;SDS011;67013;49.730;17.292;2023-05-15T09:02:52;1.70;;;0.90;;
77822;SDS011;67013;49.730;17.292;2023-05-15T09:05:22;2.50;;;1.00;;
77822;SDS011;67013;49.730;17.292;2023-05-15T09:07:51;2.20;;;1.10;;
77822;SDS011;67013;49.730;17.292;2023-05-15T09:10:22;2.20;;;1.00;;
77822;SDS011;67013;49.730;17.292;2023-05-15T09:12:52;2.30;;;1.20;;
77822;SDS011;67013;49.730;17.292;2023-05-15T09:15:24;2.00;;;1.00;;
77822;SDS011;67013;49.730;17.292;2023-05-15T09:17:54;2.30;;;1.10;;
77822;SDS011;67013;49.730;17.292;2023-05-15T09:20:25;2.30;;;1.10;;
77822;SDS011;67013;49.730;17.292;2023-05-15T09:22:56;2.10;;;0.90;;
77822;SDS011;67013;49.730;17.292;2023-05-15T09:25:37;2.30;;;1.10;;
77822;SDS011;67013;49.730;17.292;2023-05-15T09:28:09;2.20;;;1.20;;
77822;SDS011;67013;49.730;17.292;2023-05-15T09:30:55;2.40;;;1.20;;
77822;SDS011;67013;49.730;17.292;2023-05-15T09:33:31;2.30;;;1.00;;
77822;SDS011;67013;49.730;17.292;2023-05-15T09:36:02;2.40;;;1.10;;
77822;SDS011;67013;49.730;17.292;2023-05-15T09:38:34;2.20;;;1.00;;
77822;SDS011;67013;49.730;17.292;2023-05-15T09:41:13;2.10;;;1.10;;
77822;SDS011;67013;49.730;17.292;2023-05-15T09:43:51;2.10;;;1.00;;
77822;SDS011;67013;49.730;17.292;2023-05-15T09:46:22;2.00;;;1.00;;
77822;SDS011;67013;49.730;17.292;2023-05-15T09:48:54;1.80;;;0.90;;
77822;SDS011;67013;49.730;17.292;2023-05-15T09:51:25;2.40;;;1.20;;
77822;SDS011;67013;49.730;17.292;2023-05-15T09:53:55;2.80;;;1.20;;
77822;SDS011;67013;49.730;17.292;2023-05-15T09:56:25;2.60;;;1.20;;
77822;SDS011;67013;49.730;17.292;2023-05-15T09:58:54;2.10;;;1.00;;
77822;SDS011;67013;49.730;17.292;2023-05-15T10:01:25;2.10;;;1.00;;
77822;SDS011;67013;49.730;17.292;2023-05-15T10:03:58;1.80;;;0.90;;
77822;SDS011;67013;49.730;17.292;2023-05-15T10:06:34;2.10;;;1.00;;
77822;SDS011;67013;49.730;17.292;2023-05-15T10:09:04;1.90;;;1.00;;
77822;SDS011;67013;49.730;17.292;2023-05-15T10:11:35;2.60;;;1.30;;
77822;SDS011;67013;49.730;17.292;2023-05-15T10:14:06;2.10;;;1.00;;
77822;SDS011;67013;49.730;17.292;2023-05-15T10:16:38;2.50;;;1.10;;
77822;SDS011;67013;49.730;17.292;2023-05-15T10:19:08;2.60;;;1.20;;
77822;SDS011;67013;49.730;17.292;2023-05-15T10:21:40;2.30;;;1.00;;
77822;SDS011;67013;49.730;17.292;2023-05-15T10:24:11;2.10;;;1.00;;
77822;SDS011;67013;49.730;17.292;2023-05-15T10:26:41;1.80;;;0.90;;
77822;SDS011;67013;49.730;17.292;2023-05-15T10:29:11;2.50;;;1.00;;
77822;SDS011;67013;49.730;17.292;2023-05-15T10:31:44;1.80;;;0.90;;
77822;SDS011;67013;49.730;17.292;2023-05-15T10:34:15;2.40;;;1.00;;
77822;SDS011;67013;49.730;17.292;2023-05-15T10:36:45;3.10;;;1.10;;
77822;SDS011;67013;49.730;17.292;2023-05-15T10:39:18;2.10;;;1.00;;
77822;SDS011;67013;49.730;17.292;2023-05-15T10:41:49;2.60;;;1.00;;
77822;SDS011;67013;49.730;17.292;2023-05-15T10:44:20;1.80;;;0.90;;
77822;SDS011;67013;49.730;17.292;2023-05-15T10:46:50;1.00;;;0.60;;
77822;SDS011;67013;49.730;17.292;2023-05-15T10:49:20;1.00;;;0.60;;
77822;SDS011;67013;49.730;17.292;2023-05-15T10:51:50;0.90;;;0.50;;
77822;SDS011;67013;49.730;17.292;2023-05-15T10:54:21;1.10;;;0.60;;
77822;SDS011;67013;49.730;17.292;2023-05-15T10:56:52;1.20;;;0.70;;
77822;SDS011;67013;49.730;17.292;2023-05-15T10:59:30;1.80;;;0.90;;
77822;SDS011;67013;49.730;17.292;2023-05-15T11:04:48;2.00;;;1.00;;
77822;SDS011;67013;49.730;17.292;2023-05-15T11:07:22;1.70;;;0.90;;
77822;SDS011;67013;49.730;17.292;2023-05-15T11:09:52;1.60;;;0.80;;
77822;SDS011;67013;49.730;17.292;2023-05-15T11:12:22;2.60;;;1.10;;
77822;SDS011;67013;49.730;17.292;2023-05-15T11:18:04;1.40;;;0.70;;
77822;SDS011;67013;49.730;17.292;2023-05-15T11:20:36;1.80;;;0.80;;
77822;SDS011;67013;49.730;17.292;2023-05-15T11:23:07;1.60;;;0.70;;
77822;SDS011;67013;49.730;17.292;2023-05-15T11:25:36;1.20;;;0.70;;
77822;SDS011;67013;49.730;17.292;2023-05-15T11:28:13;1.70;;;0.80;;
77822;SDS011;67013;49.730;17.292;2023-05-15T11:30:51;1.40;;;0.70;;
77822;SDS011;67013;49.730;17.292;2023-05-15T11:33:26;1.30;;;0.70;;
77822;SDS011;67013;49.730;17.292;2023-05-15T11:38:26;1.40;;;0.70;;
77822;SDS011;67013;49.730;17.292;2023-05-15T11:41:11;1.20;;;0.70;;
77822;SDS011;67013;49.730;17.292;2023-05-15T11:43:47;1.90;;;0.90;;
77822;SDS011;67013;49.730;17.292;2023-05-15T11:46:17;1.50;;;0.70;;
77822;SDS011;67013;49.730;17.292;2023-05-15T11:48:48;1.50;;;0.80;;
77822;SDS011;67013;49.730;17.292;2023-05-15T11:51:19;1.50;;;0.80;;
77822;SDS011;67013;49.730;17.292;2023-05-15T11:53:51;1.40;;;0.80;;
77822;SDS011;67013;49.730;17.292;2023-05-15T11:56:22;1.00;;;0.80;;
77822;SDS011;67013;49.730;17.292;2023-05-15T11:58:54;1.10;;;0.70;;
77822;SDS011;67013;49.730;17.292;2023-05-15T12:01:26;0.90;;;0.60;;
77822;SDS011;67013;49.730;17.292;2023-05-15T12:04:07;1.50;;;0.80;;
77822;SDS011;67013;49.730;17.292;2023-05-15T12:06:40;1.10;;;0.70;;
77822;SDS011;67013;49.730;17.292;2023-05-15T12:09:16;1.20;;;0.60;;
77822;SDS011;67013;49.730;17.292;2023-05-15T12:11:49;1.10;;;0.70;;
77822;SDS011;67013;49.730;17.292;2023-05-15T12:16:54;1.20;;;0.70;;
77822;SDS011;67013;49.730;17.292;2023-05-15T12:19:29;0.80;;;0.60;;
77822;SDS011;67013;49.730;17.292;2023-05-15T12:22:01;1.40;;;0.70;;
77822;SDS011;67013;49.730;17.292;2023-05-15T12:24:35;1.50;;;0.60;;
77822;SDS011;67013;49.730;17.292;2023-05-15T12:27:07;1.30;;;0.70;;
77822;SDS011;67013;49.730;17.292;2023-05-15T12:29:37;1.20;;;0.80;;
77822;SDS011;67013;49.730;17.292;2023-05-15T12:32:08;1.30;;;0.70;;
77822;SDS011;67013;49.730;17.292;2023-05-15T12:34:37;1.80;;;0.90;;
77822;SDS011;67013;49.730;17.292;2023-05-15T12:37:08;1.70;;;0.80;;
77822;SDS011;67013;49.730;17.292;2023-05-15T12:39:49;1.80;;;0.80;;
77822;SDS011;67013;49.730;17.292;2023-05-15T12:42:19;1.10;;;0.70;;
77822;SDS011;67013;49.730;17.292;2023-05-15T12:44:53;1.40;;;0.70;;
77822;SDS011;67013;49.730;17.292;2023-05-15T12:47:24;1.30;;;0.70;;
77822;SDS011;67013;49.730;17.292;2023-05-15T12:49:55;1.20;;;0.60;;
77822;SDS011;67013;49.730;17.292;2023-05-15T12:52:28;0.90;;;0.60;;
77822;SDS011;67013;49.730;17.292;2023-05-15T12:55:00;1.20;;;0.70;;
77822;SDS011;67013;49.730;17.292;2023-05-15T12:57:29;1.60;;;0.70;;
77822;SDS011;67013;49.730;17.292;2023-05-15T12:59:59;0.90;;;0.70;;
77822;SDS011;67013;49.730;17.292;2023-05-15T13:02:29;0.60;;;0.50;;
77822;SDS011;67013;49.730;17.292;2023-05-15T13:05:01;1.40;;;0.70;;
77822;SDS011;67013;49.730;17.292;2023-05-15T13:07:32;1.30;;;0.60;;
77822;SDS011;67013;49.730;17.292;2023-05-15T13:10:02;1.20;;;0.60;;
77822;SDS011;67013;49.730;17.292;2023-05-15T13:12:37;0.80;;;0.60;;
77822;SDS011;67013;49.730;17.292;2023-05-15T13:15:20;1.00;;;0.60;;
77822;SDS011;67013;49.730;17.292;2023-05-15T13:17:53;1.50;;;0.80;;
77822;SDS011;67013;49.730;17.292;2023-05-15T13:20:25;0.70;;;0.60;;
77822;SDS011;67013;49.730;17.292;2023-05-15T13:22:55;0.90;;;0.60;;
77822;SDS011;67013;49.730;17.292;2023-05-15T13:25:25;0.50;;;0.50;;
77822;SDS011;67013;49.730;17.292;2023-05-15T13:27:55;0.50;;;0.50;;
77822;SDS011;67013;49.730;17.292;2023-05-15T13:30:26;0.40;;;0.40;;
77822;SDS011;67013;49.730;17.292;2023-05-15T13:32:56;0.80;;;0.50;;
77822;SDS011;67013;49.730;17.292;2023-05-15T13:35:26;1.20;;;0.70;;
77822;SDS011;67013;49.730;17.292;2023-05-15T13:37:56;1.00;;;0.60;;
77822;SDS011;67013;49.730;17.292;2023-05-15T13:40:25;0.80;;;0.50;;
77822;SDS011;67013;49.730;17.292;2023-05-15T13:42:56;1.10;;;0.70;;
77822;SDS011;67013;49.730;17.292;2023-05-15T13:45:26;1.10;;;0.60;;
77822;SDS011;67013;49.730;17.292;2023-05-15T13:47:55;1.30;;;0.80;;
77822;SDS011;67013;49.730;17.292;2023-05-15T13:50:25;1.40;;;0.80;;
77822;SDS011;67013;49.730;17.292;2023-05-15T13:52:54;1.20;;;0.80;;
77822;SDS011;67013;49.730;17.292;2023-05-15T13:55:24;0.90;;;0.60;;
77822;SDS011;67013;49.730;17.292;2023-05-15T13:57:53;1.50;;;0.90;;
77822;SDS011;67013;49.730;17.292;2023-05-15T14:00:23;2.80;;;1.40;;
77822;SDS011;67013;49.730;17.292;2023-05-15T14:02:53;1.50;;;0.80;;
77822;SDS011;67013;49.730;17.292;2023-05-15T14:05:22;1.90;;;0.80;;
77822;SDS011;67013;49.730;17.292;2023-05-15T14:07:51;1.50;;;0.90;;
77822;SDS011;67013;49.730;17.292;2023-05-15T14:10:22;2.00;;;1.00;;
77822;SDS011;67013;49.730;17.292;2023-05-15T14:12:52;1.60;;;0.90;;
77822;SDS011;67013;49.730;17.292;2023-05-15T14:15:21;2.50;;;1.30;;
77822;SDS011;67013;49.730;17.292;2023-05-15T14:17:51;2.30;;;1.10;;
77822;SDS011;67013;49.730;17.292;2023-05-15T14:20:20;1.90;;;1.00;;
77822;SDS011;67013;49.730;17.292;2023-05-15T14:22:50;2.30;;;1.10;;
77822;SDS011;67013;49.730;17.292;2023-05-15T14:25:19;2.50;;;1.10;;
77822;SDS011;67013;49.730;17.292;2023-05-15T14:27:49;2.50;;;1.10;;
77822;SDS011;67013;49.730;17.292;2023-05-15T14:30:20;2.00;;;0.80;;
77822;SDS011;67013;49.730;17.292;2023-05-15T14:32:49;1.20;;;0.70;;
77822;SDS011;67013;49.730;17.292;2023-05-15T14:35:19;1.90;;;1.00;;
77822;SDS011;67013;49.730;17.292;2023-05-15T14:37:48;1.30;;;0.60;;
77822;SDS011;67013;49.730;17.292;2023-05-15T14:40:18;0.80;;;0.60;;
77822;SDS011;67013;49.730;17.292;2023-05-15T14:42:47;0.50;;;0.40;;
77822;SDS011;67013;49.730;17.292;2023-05-15T14:45:17;0.50;;;0.50;;
77822;SDS011;67013;49.730;17.292;2023-05-15T14:47:46;0.80;;;0.60;;
77822;SDS011;67013;49.730;17.292;2023-05-15T14:50:16;1.50;;;0.80;;
77822;SDS011;67013;49.730;17.292;2023-05-15T14:52:46;1.20;;;0.70;;
77822;SDS011;67013;49.730;17.292;2023-05-15T14:55:15;1.90;;;0.80;;
77822;SDS011;67013;49.730;17.292;2023-05-15T14:57:47;0.60;;;0.40;;
77822;SDS011;67013;49.730;17.292;2023-05-15T15:00:17;1.00;;;0.60;;
77822;SDS011;67013;49.730;17.292;2023-05-15T15:02:46;0.50;;;0.50;;
77822;SDS011;67013;49.730;17.292;2023-05-15T15:05:16;0.80;;;0.60;;
77822;SDS011;67013;49.730;17.292;2023-05-15T15:07:58;0.90;;;0.60;;